• Join FlightAware (Why Join?)
  • Login
  • US Flag 
05:06AM EST


 

Airport Tracker/Info


-or-


 

Live Flight TrackerFlight Track Log ✈ N994BD ✈ 06-Jul-2013 ✈ KAAF - KBHM

Flight Track Log - Related Links

Times and Time Zones

All times are in EDT time to prevent confusion due to time zone crossing. See the N994BD flight status page for this flight to view local times or setup timezone preferences in your user account.

Time Position Orientation Groundspeed Altitude Reporting Facility
EDT Latitude Longitude Course Direction KTS MPH feet Rate Location/Type
03:30PM 30.0249 -85.1535 340° North  Level FlightAware Approximate
03:31PM 30.0713 -85.1732 340° North  Level FlightAware Approximate
03:32PM 30.1176 -85.1930 340° North  Level FlightAware Approximate
03:33PM 30.1640 -85.2127 340° North  Level FlightAware Approximate
03:34PM 30.2103 -85.2325 340° North  Level FlightAware Approximate
03:35PM 30.2566 -85.2523 340° North  Level FlightAware Approximate
03:36PM 30.3030 -85.2721 340° North  Level FlightAware Approximate
03:37PM 30.3493 -85.2920 340° North  Level FlightAware Approximate
03:38PM 30.3956 -85.3118 340° North  Level FlightAware Approximate
03:39PM 30.4419 -85.3317 340° North  Level FlightAware Approximate
03:40PM 30.4883 -85.3516 340° North  Level FlightAware Approximate
03:41PM 30.5346 -85.3715 340° North  Level FlightAware Approximate
03:42PM 30.5809 -85.3914 340° North  Level FlightAware Approximate
03:43PM 30.6272 -85.4114 340° North  Level FlightAware Approximate
03:44PM 30.6735 -85.4314 340° North  Level FlightAware Approximate
03:45PM 30.7197 -85.4514 338° Northwest  Level FlightAware Approximate
03:46PM 30.7656 -85.4730 338° Northwest  Level FlightAware Approximate
03:46PM 30.5333 -85.5431 338° Northwest 148 170 6,100  Level Jacksonville Center
03:47PM 30.8113 -85.4945 338° Northwest  Level FlightAware Approximate
03:47PM 30.5794 -85.5347 North 154 177 6,100  Level Jacksonville Center
03:48PM 30.8571 -85.5160 338° Northwest  Level FlightAware Approximate
03:48PM 30.6208 -85.5503 342° North 150 173 6,100  Level Jacksonville Center
03:49PM 30.9029 -85.5376 338° Northwest  Level FlightAware Approximate
03:49PM 30.6600 -85.5731 333° Northwest 154 177 6,100  Level Jacksonville Center
03:50PM 30.9487 -85.5592 338° Northwest  Level FlightAware Approximate
03:50PM 30.6950 -85.5958 331° Northwest 154 177 6,100  Level Jacksonville Center
03:51PM 30.9945 -85.5807 338° Northwest  Level FlightAware Approximate
03:51PM 30.7383 -85.6211 333° Northwest 155 178 6,100  Level Jacksonville Center
03:52PM 30.7817 -85.6492 331° Northwest 154 177 6,100  Level Jacksonville Center
03:53PM 30.8211 -85.6600 347° North 157 181 6,100  Level Jacksonville Center
03:54PM 30.8647 -85.6636 356° North 153 176 6,100 180 Level Jacksonville Center
03:55PM 30.8978 -85.6792 338° Northwest 129 148 6,500 120 Climbing Jacksonville Center
03:56PM 30.9328 -85.7019 331° Northwest 136 157 6,400 -180 Descending Jacksonville Center
03:57PM 30.9761 -85.7275 333° Northwest 168 193 6,200 -120 Descending Jacksonville Center
03:58PM 31.0172 -85.7531 332° Northwest 162 186 6,200  Level Jacksonville Center
03:59PM 31.0564 -85.7758 334° Northwest 154 177 6,200  Level Jacksonville Center
04:00PM 31.0914 -85.8036 326° Northwest 155 178 6,200  Level Jacksonville Center
04:01PM 31.1283 -85.8339 325° Northwest 155 178 6,200  Level Jacksonville Center
04:02PM 31.1631 -85.8667 321° Northwest 152 175 6,200  Level Jacksonville Center
04:03PM 31.2000 -85.8847 337° Northwest 155 178 6,200 -60 Level Jacksonville Center
04:04PM 31.2436 -85.9008 342° North 160 184 6,100 -120 Descending Jacksonville Center
04:05PM 31.2869 -85.9167 343° North 161 185 6,000  Descending Jacksonville Center
04:06PM 31.3325 -85.9353 341° North 163 188 6,100  Climbing Jacksonville Center
04:07PM 31.3739 -85.9486 345° North 163 188 6,100  Level Jacksonville Center
04:08PM 31.4175 -85.9622 345° North 160 184 6,100  Level Jacksonville Center
04:09PM 31.4589 -85.9758 344° North 161 185 6,100  Level Jacksonville Center
04:10PM 31.5044 -85.9944 341° North 163 188 6,100  Level Jacksonville Center
04:11PM 31.5478 -86.0081 345° North 161 185 6,100  Level Jacksonville Center
04:12PM 31.5933 -86.0267 341° North 163 188 6,100  Level Jacksonville Center
04:13PM 31.6347 -86.0428 342° North 164 189 6,100  Level Jacksonville Center
04:14PM 31.6761 -86.0586 342° North 163 188 6,100  Level Jacksonville Center
04:16PM 31.7357 -86.0604 359° North  Level FlightAware Approximate
04:23PM 32.0564 -86.1066 342° North  Level FlightAware Approximate
04:24PM 32.1003 -86.1223 344° North  Level FlightAware Approximate
04:25PM 32.1444 -86.1370 344° North  Level FlightAware Approximate
04:26PM 32.1886 -86.1517 344° North  Level FlightAware Approximate
04:27PM 32.2327 -86.1665 344° North  Level FlightAware Approximate
04:28PM 32.2771 -86.1803 345° North  Level FlightAware Approximate
04:29PM 32.3214 -86.1941 345° North  Level FlightAware Approximate
04:30PM 32.3658 -86.2080 345° North  Level FlightAware Approximate
04:31PM 32.4101 -86.2219 345° North  Level FlightAware Approximate
04:32PM 32.4545 -86.2357 345° North  Level FlightAware Approximate
04:33PM 32.4988 -86.2496 345° North  Level FlightAware Approximate
04:34PM 32.5415 -86.2694 339° North  Level FlightAware Approximate
04:35PM 32.5842 -86.2893 339° North  Level FlightAware Approximate
04:36PM 32.6269 -86.3092 339° North  Level FlightAware Approximate
04:37PM 32.6696 -86.3291 339° North  Level FlightAware Approximate
04:38PM 32.7123 -86.3491 339° North  Level FlightAware Approximate
04:39PM 32.7549 -86.3691 339° North  Level FlightAware Approximate
04:40PM 32.7976 -86.3891 338° Northwest  Level FlightAware Approximate
04:41PM 32.8403 -86.4091 338° Northwest  Level FlightAware Approximate
04:42PM 32.8829 -86.4292 338° Northwest  Level FlightAware Approximate
04:43PM 32.9256 -86.4492 338° Northwest  Level FlightAware Approximate
04:43PM 32.8725 -86.5839 337° Northwest 161 185 6,200  Level Atlanta Center
04:44PM 32.9683 -86.4693 338° Northwest  Level FlightAware Approximate
04:44PM 32.9139 -86.5972 345° North 160 184 6,200  Level Atlanta Center
04:45PM 33.0109 -86.4894 338° Northwest  Level FlightAware Approximate
04:45PM 32.9575 -86.6086 348° North 160 184 6,200  Level Atlanta Center
04:46PM 33.0534 -86.5100 337° Northwest  Level FlightAware Approximate
04:46PM 32.9992 -86.6222 345° North 159 183 6,200  Level Atlanta Center
04:47PM 33.0957 -86.5311 337° Northwest  Level FlightAware Approximate
04:47PM 33.0406 -86.6383 342° North 162 186 6,100  Level Atlanta Center
04:48PM 33.1380 -86.5523 337° Northwest  Level FlightAware Approximate
04:48PM 33.0814 -86.6717 326° Northwest 177 204 5,600  Level Atlanta Center
04:49PM 33.1803 -86.5735 337° Northwest  Level FlightAware Approximate